W6HN Weather Reports


Display with metric or nautical units.
time (UTC)temp
F
wind
direction
speed
MPH
gust
MPH
rain 1hr
in
rain 24hr
in
rain mn
in
humidity
%
barometer
mb
20180522195017 70 119 4.0 0.0 0.00 0.00 0.00 59 1007.9
20180522194520 70 175 4.0 0.0 0.00 0.00 0.00 61 1007.9
20180522194009 69 180 4.0 0.0 0.00 0.00 0.00 62 1008.3
20180522193513 69 124 5.0 0.0 0.00 0.00 0.00 60 1008.3
20180522193015 68 174 5.0 0.0 0.00 0.00 0.00 63 1008.3
20180522192515 67 176 4.0 0.0 0.00 0.00 0.00 65 1008.4
20180522192024 67 114 5.0 0.0 0.00 0.00 0.00 63 1008.3
20180522191525 67 116 4.0 0.0 0.00 0.00 0.00 63 1008.3
20180522191016 67 172 4.0 0.0 0.00 0.00 0.00 64 1008.3
20180522190511 67 114 5.0 0.0 0.00 0.00 0.00 63 1008.3
20180522190018 68 170 5.0 0.0 0.00 0.00 0.00 63 1008.4
20180522185507 67 160 5.0 0.0 0.00 0.00 0.00 64 1008.5
20180522185017 67 180 4.0 0.0 0.00 0.00 0.00 65 1008.5
20180522184513 67 169 4.0 0.0 0.00 0.00 0.00 65 1008.5
20180522184015 66 178 4.0 0.0 0.00 0.00 0.00 67 1008.6
20180522183525 65 124 3.0 0.0 0.00 0.00 0.00 67 1008.6
20180522183013 65 124 4.0 0.0 0.00 0.00 0.00 69 1008.6
20180522182516 64 154 4.0 0.0 0.00 0.00 0.00 70 1008.7
20180522182017 64 131 4.0 0.0 0.00 0.00 0.00 71 1008.7
20180522181520 64 116 3.0 0.0 0.00 0.00 0.00 71 1008.7
20180522181008 63 155 3.0 0.0 0.00 0.00 0.00 72 1008.8
20180522180508 63 144 3.0 0.0 0.00 0.00 0.00 73 1008.8
20180522180010 62 150 3.0 0.0 0.00 0.00 0.00 73 1008.7
20180522175511 62 130 2.0 0.0 0.00 0.00 0.00 74 1008.8
20180522175015 61 115 2.0 0.0 0.00 0.00 0.00 75 1008.8
20180522174521 61 148 2.0 0.0 0.00 0.00 0.00 77 1008.8
20180522174022 60 124 2.0 0.0 0.00 0.00 0.00 78 1008.8
20180522173523 59 121 2.0 0.0 0.00 0.00 0.00 79 1008.8
20180522173021 59 123 2.0 0.0 0.00 0.00 0.00 80 1008.8
20180522172520 58 132 2.0 0.0 0.00 0.00 0.00 81 1008.9
20180522172021 58 149 2.0 0.0 0.00 0.00 0.00 82 1008.8
20180522171524 57 149 2.0 0.0 0.00 0.00 0.00 83 1008.8
20180522171011 57 149 3.0 0.0 0.00 0.00 0.00 84 1008.9
20180522170520 57 149 3.0 0.0 0.00 0.00 0.00 84 1008.9
20180522170023 56 148 2.0 0.0 0.00 0.00 0.00 86 1008.9
20180522165520 56 148 3.0 0.0 0.00 0.00 0.00 86 1008.8
20180522165020 56 150 2.0 0.0 0.00 0.00 0.00 87 1008.8
20180522164515 55 148 1.0 0.0 0.00 0.00 0.00 87 1008.8
20180522164017 55 148 2.0 0.0 0.00 0.00 0.00 87 1008.9
20180522163509 55 138 1.0 0.0 0.00 0.00 0.00 88 1008.9
20180522163017 55 138 1.0 0.0 0.00 0.00 0.00 88 1008.9
20180522162521 55 138 1.0 0.0 0.00 0.00 0.00 88 1008.9
20180522162021 55 134 1.0 0.0 0.00 0.00 0.00 89 1008.9
20180522161509 54 134 1.0 0.0 0.00 0.00 0.00 90 1008.9
20180522161009 54 134 1.0 0.0 0.00 0.00 0.00 89 1008.9
20180522160509 54 134 0.0 0.0 0.00 0.00 0.00 90 1008.9
20180522160021 54 134 1.0 0.0 0.00 0.00 0.00 91 1008.9
20180522155507 54 134 1.0 0.0 0.00 0.00 0.00 90 1008.9
20180522155014 53 134 1.0 0.0 0.00 0.00 0.00 91 1008.9
20180522154524 53 134 0.0 0.0 0.00 0.00 0.00 92 1008.9
20180522154012 53 134 1.0 0.0 0.00 0.00 0.00 93 1008.9
20180522153515 53 134 1.0 0.0 0.00 0.00 0.00 93 1008.9
20180522153007 52 134 0.0 0.0 0.00 0.00 0.00 93 1008.8
20180522152511 52 134 0.0 0.0 0.00 0.00 0.00 93 1008.7
20180522152022 52 134 0.0 0.0 0.00 0.00 0.00 94 1008.7
20180522151524 52 134 0.0 0.0 0.00 0.00 0.00 94 1008.7
20180522151008 52 134 0.0 0.0 0.00 0.00 0.00 94 1008.4
20180522150512 52 134 0.0 0.0 0.00 0.00 0.00 94 1008.4
20180522150020 52 134 0.0 0.0 0.00 0.00 0.00 94 1008.4
20180522145510 52 134 0.0 0.0 0.00 0.00 0.00 94 1008.3
20180522145010 52 134 0.0 0.0 0.00 0.00 0.00 94 1008.3
20180522144509 51 134 0.0 0.0 0.00 0.00 0.00 94 1008.3
20180522144015 52 134 0.0 0.0 0.00 0.00 0.00 94 1008.4
20180522143521 51 134 0.0 0.0 0.00 0.00 0.00 94 1008.3
20180522143015 51 134 0.0 0.0 0.00 0.00 0.00 94 1008.3
20180522142511 51 134 0.0 0.0 0.00 0.00 0.00 94 1008.3
20180522142025 51 134 0.0 0.0 0.00 0.00 0.00 94 1008.3
20180522141515 51 134 0.0 0.0 0.00 0.00 0.00 94 1008.3
20180522141022 51 134 0.0 0.0 0.00 0.00 0.00 94 1008.1
20180522140507 51 134 0.0 0.0 0.00 0.00 0.00 94 1008.1
20180522140016 51 134 0.0 0.0 0.00 0.00 0.00 94 1008.1
20180522135521 51 134 0.0 0.0 0.00 0.00 0.00 94 1007.8
20180522135014 51 134 0.0 0.0 0.00 0.00 0.00 94 1007.8
20180522134510 51 134 0.0 0.0 0.00 0.00 0.00 94 1007.8
20180522134015 51 134 0.0 0.0 0.00 0.00 0.00 94 1007.8
20180522133519 51 134 0.0 0.0 0.00 0.00 0.00 94 1007.8
20180522133009 51 134 0.0 0.0 0.00 0.00 0.00 93 1007.8
20180522132516 51 134 0.0 0.0 0.00 0.00 0.00 94 1007.5
20180522132006 51 134 0.0 0.0 0.00 0.00 0.00 93 1007.5
20180522131508 51 134 0.0 0.0 0.00 0.00 0.00 93 1007.5
20180522131013 51 134 0.0 0.0 0.00 0.00 0.00 93 1007.4
20180522130522 51 134 0.0 0.0 0.00 0.00 0.00 93 1007.4
20180522130011 51 134 0.0 0.0 0.00 0.00 0.00 93 1007.4
20180522125510 51 134 0.0 0.0 0.00 0.00 0.00 93 1007.2
20180522125015 51 134 0.0 0.0 0.00 0.00 0.00 93 1007.2
20180522124521 51 134 0.0 0.0 0.00 0.00 0.00 93 1007.2
20180522124020 51 134 0.0 0.0 0.00 0.00 0.00 93 1007.3
20180522123509 51 134 0.0 0.0 0.00 0.00 0.00 93 1007.3
20180522123013 51 134 0.0 0.0 0.00 0.00 0.00 93 1007.3
20180522122525 51 134 0.0 0.0 0.00 0.00 0.00 93 1007.3
20180522122012 51 134 0.0 0.0 0.00 0.00 0.00 93 1007.3
20180522121507 51 134 0.0 0.0 0.00 0.00 0.00 93 1007.3
20180522121018 50 134 0.0 0.0 0.00 0.00 0.00 93 1007.3
20180522120508 50 134 0.0 0.0 0.00 0.00 0.00 93 1007.3
20180522120015 50 134 0.0 0.0 0.00 0.00 0.00 93 1007.3
20180522115519 50 134 1.0 0.0 0.00 0.00 0.00 92 1007.3
20180522115008 50 134 0.0 0.0 0.00 0.00 0.00 92 1007.3
20180522114525 50 134 0.0 0.0 0.00 0.00 0.00 92 1007.3
20180522114023 50 134 1.0 0.0 0.00 0.00 0.00 92 1007.3
20180522113508 50 134 1.0 0.0 0.00 0.00 0.00 92 1007.3
20180522113017 50 134 0.0 0.0 0.00 0.00 0.00 92 1007.3
20180522112517 50 134 0.0 0.0 0.00 0.00 0.00 92 1007.2
20180522112020 50 134 0.0 0.0 0.00 0.00 0.00 92 1007.2
20180522111519 50 134 0.0 0.0 0.00 0.00 0.00 91 1007.2
20180522111007 50 134 0.0 0.0 0.00 0.00 0.00 91 1007.2
20180522110510 50 134 0.0 0.0 0.00 0.00 0.00 91 1007.2
20180522110018 50 134 0.0 0.0 0.00 0.00 0.00 91 1007.2
20180522105507 51 134 0.0 0.0 0.00 0.00 0.00 91 1007.1
20180522105020 51 134 0.0 0.0 0.00 0.00 0.00 91 1007.1
20180522104524 51 134 0.0 0.0 0.00 0.00 0.00 91 1007.1
20180522104011 51 134 0.0 0.0 0.00 0.00 0.00 90 1006.9
20180522103507 51 134 0.0 0.0 0.00 0.00 0.00 90 1006.9
20180522103011 51 134 0.0 0.0 0.00 0.00 0.00 90 1006.9
20180522102521 51 134 0.0 0.0 0.00 0.00 0.00 90 1007.0
20180522102024 51 134 0.0 0.0 0.00 0.00 0.00 89 1007.0
20180522101507 51 134 0.0 0.0 0.00 0.00 0.00 90 1007.0
20180522101012 51 134 0.0 0.0 0.00 0.00 0.00 90 1006.8
20180522100518 51 134 0.0 0.0 0.00 0.00 0.00 89 1006.8
20180522100007 51 134 0.0 0.0 0.00 0.00 0.00 89 1006.8
20180522095507 51 134 0.0 0.0 0.00 0.00 0.00 89 1006.8
20180522095015 51 134 0.0 0.0 0.00 0.00 0.00 89 1006.8
20180522094525 51 134 0.0 0.0 0.00 0.00 0.00 89 1006.8
20180522094009 51 134 0.0 0.0 0.00 0.00 0.00 89 1006.9
20180522093512 51 134 0.0 0.0 0.00 0.00 0.00 90 1006.9
20180522093019 51 134 0.0 0.0 0.00 0.00 0.00 90 1006.9
20180522092509 52 134 0.0 0.0 0.00 0.00 0.00 89 1007.0
20180522092015 52 134 0.0 0.0 0.00 0.00 0.00 89 1007.0
20180522091522 52 134 0.0 0.0 0.00 0.00 0.00 89 1007.0
20180522091016 52 134 0.0 0.0 0.00 0.00 0.00 89 1007.2
20180522090515 52 134 0.0 0.0 0.00 0.00 0.00 88 1007.2
20180522090023 52 134 0.0 0.0 0.00 0.00 0.00 88 1007.2
20180522085523 52 134 0.0 0.0 0.00 0.00 0.00 88 1007.3
20180522085024 52 134 0.0 0.0 0.00 0.00 0.00 88 1007.3
20180522084508 52 134 0.0 0.0 0.00 0.00 0.00 88 1007.3
20180522084014 52 134 0.0 0.0 0.00 0.00 0.00 88 1007.3
20180522083517 52 134 0.0 0.0 0.00 0.00 0.00 88 1007.3
20180522083017 52 134 0.0 0.0 0.00 0.00 0.00 88 1007.3
20180522082522 52 134 0.0 0.0 0.00 0.00 0.00 88 1007.3
20180522082008 52 134 1.0 0.0 0.00 0.00 0.00 88 1007.3
20180522081508 52 134 2.0 0.0 0.00 0.00 0.00 88 1007.3
20180522081022 52 133 2.0 0.0 0.00 0.00 0.00 88 1007.3
20180522080515 52 132 2.0 0.0 0.00 0.00 0.00 88 1007.3
20180522080006 52 132 2.0 0.0 0.00 0.00 0.00 88 1007.3
20180522075516 52 132 2.0 0.0 0.00 0.00 0.00 88 1007.3
20180522075017 52 138 1.0 0.0 0.00 0.00 0.00 88 1007.3
20180522074512 52 134 2.0 0.0 0.00 0.00 0.00 88 1007.3
20180522074021 53 134 2.0 0.0 0.00 0.00 0.00 87 1007.4
20180522073509 53 134 2.0 0.0 0.00 0.00 0.00 87 1007.4
20180522073009 53 137 2.0 0.0 0.00 0.00 0.00 87 1007.4
20180522072517 53 123 2.0 0.0 0.00 0.00 0.00 87 1007.4
20180522072007 53 136 3.0 0.0 0.00 0.00 0.00 87 1007.4
20180522071518 53 136 3.0 0.0 0.00 0.00 0.00 86 1007.4
20180522071020 53 115 3.0 0.0 0.00 0.00 0.00 86 1007.4
20180522070522 53 112 2.0 0.0 0.00 0.00 0.00 86 1007.4
20180522070025 53 111 2.0 0.0 0.00 0.00 0.00 86 1007.4
20180522065525 53 110 2.0 0.0 0.00 0.00 0.00 86 1007.3
20180522065007 53 110 2.0 0.0 0.00 0.00 0.00 86 1007.3
20180522064511 53 109 3.0 0.0 0.00 0.00 0.00 86 1007.3
20180522064011 54 105 2.0 0.0 0.00 0.00 0.00 85 1007.2
20180522063519 54 105 2.0 0.0 0.00 0.00 0.00 85 1007.3
20180522063006 54 104 3.0 0.0 0.00 0.00 0.00 85 1007.3
20180522062512 54 132 3.0 0.0 0.00 0.00 0.00 84 1007.3
20180522062004 54 132 3.0 0.0 0.00 0.00 0.00 84 1007.3
20180522061517 54 130 3.0 0.0 0.00 0.00 0.00 84 1007.3
20180522061022 54 130 4.0 0.0 0.00 0.00 0.00 84 1007.3
20180522060521 54 127 3.0 0.0 0.00 0.00 0.00 84 1007.3
20180522060006 55 128 3.0 0.0 0.00 0.00 0.00 84 1007.3
20180522055515 55 113 3.0 0.0 0.00 0.00 0.00 83 1007.3
20180522055012 55 111 4.0 0.0 0.00 0.00 0.00 83 1007.3
20180522054517 55 112 3.0 0.0 0.00 0.00 0.00 83 1007.3
20180522054016 55 109 4.0 0.0 0.00 0.00 0.00 83 1007.3
20180522053517 55 126 4.0 0.0 0.00 0.00 0.00 82 1007.3
20180522053014 55 134 3.0 0.0 0.00 0.00 0.00 82 1007.3
20180522052509 55 110 4.0 0.0 0.00 0.00 0.00 82 1007.2
20180522052016 55 109 4.0 0.0 0.00 0.00 0.00 82 1007.2
20180522051520 56 125 3.0 0.0 0.00 0.00 0.00 81 1007.2
20180522051019 56 126 3.0 0.0 0.00 0.00 0.00 81 1007.2
20180522050516 56 129 3.0 0.0 0.00 0.00 0.00 80 1007.2
20180522050021 56 140 4.0 0.0 0.00 0.00 0.00 80 1007.2
20180522045517 57 126 4.0 0.0 0.00 0.00 0.00 80 1006.9
20180522045022 57 168 4.0 0.0 0.00 0.00 0.00 79 1006.9
20180522044509 57 148 4.0 0.0 0.00 0.00 0.00 79 1006.9
20180522044013 57 151 3.0 0.0 0.00 0.00 0.00 78 1006.7
20180522043521 58 152 3.0 0.0 0.00 0.00 0.00 78 1006.7
20180522043023 58 124 3.0 0.0 0.00 0.00 0.00 77 1006.7
20180522042516 58 136 4.0 0.0 0.00 0.00 0.00 77 1006.5
20180522042025 58 134 3.0 0.0 0.00 0.00 0.00 77 1006.5
20180522041512 58 126 4.0 0.0 0.00 0.00 0.00 76 1006.5
20180522041011 59 131 5.0 0.0 0.00 0.00 0.00 76 1006.2
20180522040513 59 140 5.0 0.0 0.00 0.00 0.00 75 1006.2
20180522040016 59 114 5.0 0.0 0.00 0.00 0.00 74 1006.2
20180522035512 60 161 4.0 0.0 0.00 0.00 0.00 74 1006.0
20180522035020 60 118 5.0 0.0 0.00 0.00 0.00 73 1006.0
20180522034508 60 138 5.0 0.0 0.00 0.00 0.00 72 1006.0
20180522034006 61 136 4.0 0.0 0.00 0.00 0.00 72 1005.7
20180522033510 61 115 4.0 0.0 0.00 0.00 0.00 71 1005.7
20180522033008 62 146 5.0 0.0 0.00 0.00 0.00 71 1005.8
20180522032510 62 137 5.0 0.0 0.00 0.00 0.00 70 1005.7
20180522032030 62 128 5.0 0.0 0.00 0.00 0.00 70 1005.7
20180522031511 63 130 5.0 0.0 0.00 0.00 0.00 69 1005.7
20180522031023 63 135 6.0 0.0 0.00 0.00 0.00 69 1005.6
20180522030507 63 111 5.0 0.0 0.00 0.00 0.00 68 1005.6
20180522030010 64 126 4.0 0.0 0.00 0.00 0.00 67 1005.6
20180522025516 64 141 4.0 0.0 0.00 0.00 0.00 66 1005.2
20180522025014 65 149 4.0 0.0 0.00 0.00 0.00 66 1005.2
20180522024509 65 146 4.0 0.0 0.00 0.00 0.00 65 1005.2
20180522024017 66 163 5.0 0.0 0.00 0.00 0.00 64 1005.2
20180522023516 66 165 5.0 0.0 0.00 0.00 0.00 64 1005.2
20180522023019 67 157 5.0 0.0 0.00 0.00 0.00 63 1005.2
20180522022515 67 166 5.0 0.0 0.00 0.00 0.00 63 1005.2
20180522022009 67 123 6.0 0.0 0.00 0.00 0.00 63 1005.2
20180522021518 67 132 7.0 0.0 0.00 0.00 0.00 62 1005.2
20180522021019 68 126 6.0 0.0 0.00 0.00 0.00 61 1005.1
20180522020522 69 112 5.0 0.0 0.00 0.00 0.00 60 1005.1
20180522020025 69 120 6.0 0.0 0.00 0.00 0.00 60 1005.1
20180522015516 69 126 7.0 0.0 0.00 0.00 0.00 59 1005.1
20180522015018 70 105 7.0 0.0 0.00 0.00 0.00 58 1005.1
20180522014516 70 131 7.0 0.0 0.00 0.00 0.00 57 1005.1
20180522014023 71 123 6.0 0.0 0.00 0.00 0.00 57 1005.0
20180522013524 72 110 6.0 0.0 0.00 0.00 0.00 55 1005.0
20180522013010 72 174 5.0 0.0 0.00 0.00 0.00 56 1005.0
20180522012518 73 128 6.0 0.0 0.00 0.00 0.00 54 1005.0
20180522012010 73 177 6.0 0.0 0.00 0.00 0.00 53 1005.0
20180522011518 73 186 4.0 0.0 0.00 0.00 0.00 53 1005.0
20180522011024 73 173 6.0 0.0 0.00 0.00 0.00 54 1005.0
20180522010506 74 107 6.0 0.0 0.00 0.00 0.00 52 1005.0
20180522010006 74 109 5.0 0.0 0.00 0.00 0.00 51 1005.0
20180522005509 74 108 5.0 0.0 0.00 0.00 0.00 51 1004.9
20180522005012 74 118 4.0 0.0 0.00 0.00 0.00 51 1004.9
20180522004514 75 110 4.0 0.0 0.00 0.00 0.00 50 1005.0
20180522004008 75 92 5.0 0.0 0.00 0.00 0.00 49 1004.8
20180522003522 75 171 5.0 0.0 0.00 0.00 0.00 50 1004.8
20180522003011 75 159 6.0 0.0 0.00 0.00 0.00 51 1004.8
20180522002524 75 101 7.0 0.0 0.00 0.00 0.00 49 1004.7
20180522002010 76 146 6.0 0.0 0.00 0.00 0.00 49 1004.7
20180522001511 76 118 5.0 0.0 0.00 0.00 0.00 49 1004.7
20180522001021 76 107 5.0 0.0 0.00 0.00 0.00 48 1004.9
20180522000507 76 102 6.0 0.0 0.00 0.00 0.00 49 1004.9
20180522000014 76 136 6.0 0.0 0.00 0.00 0.00 50 1004.9
20180521235516 76 141 7.0 0.0 0.00 0.00 0.00 49 1004.9
20180521235008 76 119 7.0 0.0 0.00 0.00 0.00 49 1004.9
20180521234516 77 113 6.0 0.0 0.00 0.00 0.00 48 1004.9
20180521234007 77 125 5.0 0.0 0.00 0.00 0.00 48 1005.0
20180521233511 77 111 5.0 0.0 0.00 0.00 0.00 48 1005.0
20180521233022 77 102 5.0 0.0 0.00 0.00 0.00 48 1005.0
20180521232510 76 133 7.0 0.0 0.00 0.00 0.00 50 1005.2
20180521232021 76 82 7.0 0.0 0.00 0.00 0.00 48 1005.2
20180521231523 77 115 7.0 0.0 0.00 0.00 0.00 48 1005.2
20180521231018 77 111 6.0 0.0 0.00 0.00 0.00 49 1005.2
20180521230509 77 109 6.0 0.0 0.00 0.00 0.00 48 1005.2
20180521230012 77 113 7.0 0.0 0.00 0.00 0.00 48 1005.2
20180521225521 76 101 8.0 0.0 0.00 0.00 0.00 48 1005.3
20180521225007 76 97 7.0 0.0 0.00 0.00 0.00 49 1005.3
20180521224511 77 98 6.0 0.0 0.00 0.00 0.00 48 1005.3
20180521224020 76 130 6.0 0.0 0.00 0.00 0.00 50 1005.5
20180521223521 76 104 6.0 0.0 0.00 0.00 0.00 50 1005.5
20180521223010 77 107 5.0 0.0 0.00 0.00 0.00 49 1005.5
20180521222511 77 98 5.0 0.0 0.00 0.00 0.00 49 1005.6
20180521222020 77 112 7.0 0.0 0.00 0.00 0.00 51 1005.6
20180521221507 76 100 7.0 0.0 0.00 0.00 0.00 51 1005.6
20180521221011 76 130 7.0 0.0 0.00 0.00 0.00 50 1005.6
20180521220517 77 98 7.0 0.0 0.00 0.00 0.00 49 1005.6
20180521220021 77 148 6.0 0.0 0.00 0.00 0.00 50 1005.6
20180521215516 78 105 7.0 0.0 0.00 0.00 0.00 48 1005.7
20180521215019 78 166 6.0 0.0 0.00 0.00 0.00 50 1005.7
20180521214507 78 138 6.0 0.0 0.00 0.00 0.00 50 1005.7
20180521214015 78 110 6.0 0.0 0.00 0.00 0.00 49 1005.7
20180521213517 78 123 7.0 0.0 0.00 0.00 0.00 49 1005.7
20180521213010 78 155 7.0 0.0 0.00 0.00 0.00 50 1005.7
20180521212517 77 153 6.0 0.0 0.00 0.00 0.00 50 1005.8
20180521212019 77 182 5.0 0.0 0.00 0.00 0.00 51 1005.8
20180521211512 77 105 5.0 0.0 0.00 0.00 0.00 50 1005.8
20180521211006 78 141 6.0 0.0 0.00 0.00 0.00 48 1005.9
20180521210507 78 157 7.0 0.0 0.00 0.00 0.00 48 1005.9
20180521210009 77 104 6.0 0.0 0.00 0.00 0.00 48 1005.9
20180521205515 78 131 5.0 0.0 0.00 0.00 0.00 48 1005.9
20180521205018 78 109 5.0 0.0 0.00 0.00 0.00 47 1005.9
20180521204510 78 117 4.0 0.0 0.00 0.00 0.00 48 1005.9
20180521204018 78 167 4.0 0.0 0.00 0.00 0.00 49 1006.2
20180521203525 78 144 3.0 0.0 0.00 0.00 0.00 48 1006.2
20180521203008 77 111 4.0 0.0 0.00 0.00 0.00 50 1006.2
20180521202517 77 121 5.0 0.0 0.00 0.00 0.00 48 1006.2
20180521202012 77 153 5.0 0.0 0.00 0.00 0.00 50 1006.2
20180521201513 77 118 5.0 0.0 0.00 0.00 0.00 47 1006.2
20180521201006 77 175 3.0 0.0 0.00 0.00 0.00 49 1006.5
20180521200512 76 171 2.0 0.0 0.00 0.00 0.00 52 1006.5
20180521200019 75 96 2.0 0.0 0.00 0.00 0.00 50 1006.5
20180521195524 75 104 2.0 0.0 0.00 0.00 0.00 50 1006.7